createdAt,value
2022-11-19T00:02:12.222Z,6.37
2022-11-19T00:04:42.086Z,6.40
2022-11-19T00:07:10.629Z,6.43
2022-11-19T00:09:39.009Z,8.10
2022-11-19T00:12:39.237Z,6.60
2022-11-19T00:15:11.007Z,6.27
2022-11-19T00:17:39.341Z,6.63
2022-11-19T00:20:10.318Z,5.87
2022-11-19T00:22:38.659Z,6.83
2022-11-19T00:25:07.854Z,8.07
2022-11-19T00:27:36.260Z,7.30
2022-11-19T00:30:10.968Z,6.47
2022-11-19T00:32:48.986Z,6.37
2022-11-19T00:35:18.973Z,7.90
2022-11-19T00:37:47.297Z,6.63
2022-11-19T00:40:15.711Z,5.03
2022-11-19T00:43:03.996Z,6.47
2022-11-19T00:45:32.044Z,5.47
2022-11-19T00:48:00.056Z,5.73
2022-11-19T00:50:29.453Z,5.37
2022-11-19T00:52:57.482Z,5.97
2022-11-19T00:55:25.472Z,7.50
2022-11-19T00:57:53.489Z,5.27
2022-11-19T01:00:21.725Z,7.50
2022-11-19T01:02:49.725Z,7.27
2022-11-19T01:05:17.877Z,7.43
2022-11-19T01:07:47.224Z,7.10
2022-11-19T01:10:15.217Z,6.20
2022-11-19T01:12:57.129Z,6.50
2022-11-19T01:15:25.101Z,6.73
2022-11-19T01:17:53.100Z,5.37
2022-11-19T01:20:21.243Z,5.93
2022-11-19T01:22:50.604Z,7.90
2022-11-19T01:25:18.724Z,5.87
2022-11-19T01:27:46.789Z,6.07
2022-11-19T01:30:16.629Z,5.37
2022-11-19T01:32:44.885Z,6.23
2022-11-19T01:35:12.911Z,8.47
2022-11-19T01:37:41.137Z,6.97
2022-11-19T01:40:12.286Z,5.37
2022-11-19T01:42:50.370Z,5.47
2022-11-19T01:45:37.225Z,6.23
2022-11-19T01:48:08.835Z,5.60
2022-11-19T01:50:40.400Z,9.10
2022-11-19T01:53:09.871Z,6.03
2022-11-19T01:55:40.393Z,6.33
2022-11-19T01:58:09.149Z,6.83
2022-11-19T02:00:37.271Z,7.37
2022-11-19T02:03:05.334Z,6.37
2022-11-19T02:05:34.037Z,6.23
2022-11-19T02:08:06.556Z,6.97
2022-11-19T02:10:45.645Z,7.80
2022-11-19T02:13:25.627Z,8.40
2022-11-19T02:15:59.096Z,6.50
2022-11-19T02:18:45.216Z,8.03
2022-11-19T02:21:24.580Z,7.50
2022-11-19T02:24:37.526Z,7.90
2022-11-19T02:27:38.430Z,7.80
2022-11-19T02:30:10.957Z,6.90
2022-11-19T02:32:58.914Z,6.50
2022-11-19T02:35:45.188Z,6.33
2022-11-19T02:38:23.161Z,7.10
2022-11-19T02:40:57.063Z,5.90
2022-11-19T02:43:30.873Z,7.70
2022-11-19T02:46:06.039Z,7.23
2022-11-19T02:48:38.212Z,5.83
2022-11-19T02:51:07.898Z,6.07
2022-11-19T02:53:36.421Z,9.17
2022-11-19T02:56:13.885Z,9.20
2022-11-19T02:59:05.745Z,8.33
2022-11-19T03:01:54.740Z,7.50
2022-11-19T03:04:31.199Z,7.57
2022-11-19T03:07:04.052Z,7.30
2022-11-19T03:09:33.648Z,8.07
2022-11-19T03:12:10.753Z,7.27
2022-11-19T03:15:05.668Z,6.83
2022-11-19T03:17:51.186Z,7.80
2022-11-19T03:20:26.384Z,7.20
2022-11-19T03:22:59.093Z,8.00
2022-11-19T03:25:29.892Z,6.63
2022-11-19T03:28:03.009Z,7.80
2022-11-19T03:31:05.497Z,7.07
2022-11-19T03:33:38.785Z,6.33
2022-11-19T03:36:11.792Z,6.13
2022-11-19T03:38:45.226Z,8.23
2022-11-19T03:41:16.329Z,6.97
2022-11-19T03:43:49.285Z,8.77
2022-11-19T03:46:20.197Z,8.67
2022-11-19T03:48:53.498Z,10.30
2022-11-19T03:51:25.529Z,9.70
2022-11-19T03:53:54.420Z,8.73
2022-11-19T03:56:26.587Z,12.07
2022-11-19T03:58:54.820Z,9.67
2022-11-19T04:01:23.395Z,8.27
2022-11-19T04:04:06.682Z,9.17
2022-11-19T04:06:34.682Z,7.70
2022-11-19T04:09:02.721Z,9.33
2022-11-19T04:11:30.757Z,9.07
2022-11-19T04:13:59.063Z,8.67
2022-11-19T04:16:27.546Z,9.47
2022-11-19T04:18:56.960Z,8.87
2022-11-19T04:21:24.954Z,8.37
2022-11-19T04:23:53.000Z,9.57
2022-11-19T04:26:20.986Z,11.03
2022-11-19T04:28:48.975Z,9.60
2022-11-19T04:31:18.183Z,10.27
2022-11-19T04:33:46.338Z,10.10
2022-11-19T04:36:15.737Z,9.43
2022-11-19T04:38:43.750Z,9.93
2022-11-19T04:41:11.913Z,10.70
2022-11-19T04:43:39.975Z,10.20
2022-11-19T04:46:08.037Z,8.30
2022-11-19T04:48:36.029Z,8.97
2022-11-19T04:51:04.064Z,8.97
2022-11-19T04:53:33.427Z,8.27
2022-11-19T04:56:01.457Z,10.87
2022-11-19T04:58:29.437Z,12.37
2022-11-19T05:00:57.459Z,7.67
2022-11-19T05:03:25.518Z,7.97
2022-11-19T05:05:53.738Z,7.13
2022-11-19T05:08:22.073Z,8.40
2022-11-19T05:10:51.529Z,8.30
2022-11-19T05:13:19.760Z,8.17
2022-11-19T05:15:47.873Z,8.77
2022-11-19T05:18:15.858Z,7.67
2022-11-19T05:20:43.919Z,8.57
2022-11-19T05:23:12.692Z,7.60
2022-11-19T05:25:40.780Z,8.37
2022-11-19T05:28:10.229Z,6.20
2022-11-19T05:30:38.231Z,9.87
2022-11-19T05:33:06.474Z,8.00
2022-11-19T05:35:34.705Z,8.27
2022-11-19T05:38:02.804Z,9.83
2022-11-19T05:40:30.901Z,7.20
2022-11-19T05:43:05.165Z,7.37
2022-11-19T05:45:35.145Z,8.90
2022-11-19T05:48:03.180Z,7.90
2022-11-19T05:50:31.204Z,8.80
2022-11-19T05:52:59.978Z,9.23
2022-11-19T05:55:27.984Z,6.17
2022-11-19T05:57:55.961Z,6.87
2022-11-19T06:00:24.057Z,8.10
2022-11-19T06:02:53.633Z,7.73
2022-11-19T06:05:21.686Z,13.10
2022-11-19T06:07:49.641Z,12.87
2022-11-19T06:10:17.898Z,14.17
2022-11-19T06:12:46.354Z,13.77
2022-11-19T06:15:14.869Z,13.10
2022-11-19T06:17:43.035Z,12.63
2022-11-19T06:20:12.844Z,11.70
2022-11-19T06:22:40.970Z,11.60
2022-11-19T06:25:09.752Z,10.30
2022-11-19T06:27:37.735Z,8.10
2022-11-19T06:30:07.011Z,11.33
2022-11-19T06:32:35.120Z,8.57
2022-11-19T06:35:03.120Z,11.43
2022-11-19T06:37:32.698Z,9.03
2022-11-19T06:40:00.689Z,9.40
2022-11-19T06:42:37.739Z,7.73
2022-11-19T06:45:07.880Z,6.70
2022-11-19T06:47:36.204Z,7.97
2022-11-19T06:50:04.737Z,8.57
2022-11-19T06:52:34.122Z,9.83
2022-11-19T06:55:02.189Z,7.10
2022-11-19T06:57:30.184Z,7.40
2022-11-19T06:59:58.213Z,7.33
2022-11-19T07:02:26.200Z,7.10
2022-11-19T07:04:54.208Z,8.17
2022-11-19T07:07:22.327Z,9.07
2022-11-19T07:09:51.789Z,8.53
2022-11-19T07:12:19.780Z,7.57
2022-11-19T07:14:47.776Z,9.50
2022-11-19T07:17:15.816Z,9.93
2022-11-19T07:19:43.812Z,9.03
2022-11-19T07:22:14.468Z,8.73
2022-11-19T07:24:42.577Z,8.90
2022-11-19T07:27:12.001Z,10.43
2022-11-19T07:29:40.043Z,11.70
2022-11-19T07:32:08.100Z,11.17
2022-11-19T07:34:36.197Z,10.87
2022-11-19T07:37:04.209Z,11.10
2022-11-19T07:39:32.209Z,13.43
2022-11-19T07:42:17.532Z,11.53
2022-11-19T07:44:50.879Z,9.73
2022-11-19T07:47:22.952Z,14.03
2022-11-19T07:49:51.151Z,13.73
2022-11-19T07:52:19.322Z,12.47
2022-11-19T07:54:47.354Z,12.20
2022-11-19T07:57:15.401Z,10.57
2022-11-19T07:59:43.407Z,11.53
2022-11-19T08:02:14.058Z,12.00
2022-11-19T08:04:42.200Z,12.57
2022-11-19T08:07:10.422Z,12.67
2022-11-19T08:09:38.621Z,11.83
2022-11-19T08:12:09.789Z,9.40
2022-11-19T08:14:40.157Z,12.07
2022-11-19T08:17:27.181Z,11.13
2022-11-19T08:19:56.640Z,9.97
2022-11-19T08:22:24.715Z,10.37
2022-11-19T08:24:52.793Z,10.43
2022-11-19T08:27:21.297Z,10.50
2022-11-19T08:29:49.405Z,8.47
2022-11-19T08:32:17.620Z,10.17
2022-11-19T08:34:45.646Z,9.33
2022-11-19T08:37:15.085Z,10.90
2022-11-19T08:39:43.093Z,10.07
2022-11-19T08:42:28.551Z,9.73
2022-11-19T08:44:56.558Z,12.27
2022-11-19T08:47:24.541Z,9.90
2022-11-19T08:49:52.552Z,12.37
2022-11-19T08:52:21.926Z,13.53
2022-11-19T08:54:49.940Z,10.13
2022-11-19T08:57:17.903Z,10.60
2022-11-19T08:59:47.792Z,12.23
2022-11-19T09:02:15.825Z,11.70
2022-11-19T09:04:43.791Z,16.27
2022-11-19T09:07:11.925Z,13.60
2022-11-19T09:09:41.333Z,15.53
2022-11-19T09:12:10.189Z,15.50
2022-11-19T09:14:38.220Z,10.97
2022-11-19T09:17:06.213Z,11.77
2022-11-19T09:19:34.249Z,10.70
2022-11-19T09:22:02.310Z,11.87
2022-11-19T09:24:30.256Z,12.57
2022-11-19T09:27:02.190Z,11.30
2022-11-19T09:29:30.576Z,11.70
2022-11-19T09:31:58.686Z,10.63
2022-11-19T09:34:26.654Z,10.27
2022-11-19T09:36:54.685Z,11.50
2022-11-19T09:39:22.727Z,9.60
2022-11-19T09:41:56.392Z,11.60
2022-11-19T09:44:47.436Z,8.70
2022-11-19T09:47:28.149Z,10.00
2022-11-19T09:50:05.328Z,8.17
2022-11-19T09:52:38.186Z,8.97
2022-11-19T09:55:07.447Z,8.20
2022-11-19T09:57:43.261Z,7.53
2022-11-19T10:00:18.996Z,8.10
2022-11-19T10:02:47.005Z,7.43
2022-11-19T10:05:16.706Z,8.23
2022-11-19T10:07:55.036Z,6.93
2022-11-19T10:10:35.684Z,8.13
2022-11-19T10:13:20.771Z,6.43
2022-11-19T10:16:13.215Z,7.93
2022-11-19T10:18:50.484Z,10.50
2022-11-19T10:21:26.114Z,16.37
2022-11-19T10:24:00.958Z,14.37
2022-11-19T10:26:35.689Z,15.17
2022-11-19T10:29:12.040Z,12.97
2022-11-19T10:31:46.273Z,13.93
2022-11-19T10:34:20.597Z,27.87
2022-11-19T10:36:55.799Z,18.67
2022-11-19T10:39:28.566Z,10.10
2022-11-19T10:42:00.437Z,7.70
2022-11-19T10:44:40.040Z,8.90
2022-11-19T10:47:16.026Z,5.40
2022-11-19T10:49:45.244Z,4.80
2022-11-19T10:52:27.081Z,4.37
2022-11-19T10:55:00.724Z,5.28
2022-11-19T10:57:32.614Z,5.03
2022-11-19T11:00:02.420Z,5.33
2022-11-19T11:02:43.531Z,5.23
2022-11-19T11:05:13.726Z,6.07
2022-11-19T11:07:53.705Z,5.23
2022-11-19T11:10:38.324Z,5.77
2022-11-19T11:13:35.121Z,5.93
2022-11-19T11:16:08.424Z,5.30
2022-11-19T11:18:40.615Z,4.80
2022-11-19T11:21:13.048Z,5.00
2022-11-19T11:23:50.917Z,6.03
2022-11-19T11:26:24.702Z,6.13
2022-11-19T11:28:58.837Z,6.80
2022-11-19T11:31:32.664Z,6.03
2022-11-19T11:34:03.259Z,6.03
2022-11-19T11:36:33.877Z,5.87
2022-11-19T11:39:03.315Z,5.97
2022-11-19T11:44:28.289Z,7.40
2022-11-19T11:46:59.333Z,8.03
2022-11-19T11:49:31.757Z,8.97
2022-11-19T11:52:06.831Z,6.17
2022-11-19T11:54:35.293Z,6.83
2022-11-19T11:57:16.857Z,6.90
2022-11-19T11:59:45.508Z,7.00
2022-11-19T12:02:22.555Z,6.53
2022-11-19T12:04:52.889Z,7.80
2022-11-19T12:07:59.038Z,6.17
2022-11-19T12:10:35.516Z,6.37
2022-11-19T12:13:24.124Z,6.50
2022-11-19T12:15:59.900Z,7.03
2022-11-19T12:18:38.233Z,6.40
2022-11-19T12:21:12.230Z,5.20
2022-11-19T12:24:03.316Z,7.10
2022-11-19T12:26:39.937Z,5.17
2022-11-19T12:29:19.667Z,5.53
2022-11-19T12:32:01.879Z,4.53
2022-11-19T12:35:01.592Z,4.20
2022-11-19T12:37:46.651Z,4.43
2022-11-19T12:40:25.406Z,5.50
2022-11-19T12:43:02.732Z,5.73
2022-11-19T12:45:39.118Z,6.63
2022-11-19T12:48:42.897Z,6.03
2022-11-19T12:51:21.190Z,5.53
2022-11-19T12:54:16.914Z,4.80
2022-11-19T12:56:55.947Z,4.43
2022-11-19T12:59:43.807Z,5.20
2022-11-19T13:02:21.958Z,3.77
2022-11-19T13:04:56.860Z,4.53
2022-11-19T13:07:30.737Z,3.90
2022-11-19T13:10:06.710Z,2.63
2022-11-19T13:12:39.665Z,3.40
2022-11-19T13:15:15.585Z,3.23
2022-11-19T13:17:47.802Z,3.50
2022-11-19T13:20:23.744Z,2.87
2022-11-19T13:22:54.205Z,3.77
2022-11-19T13:25:26.143Z,4.63
2022-11-19T13:27:56.671Z,2.30
2022-11-19T13:30:27.334Z,2.50
2022-11-19T13:33:03.536Z,3.43
2022-11-19T13:35:38.430Z,3.43
2022-11-19T13:38:17.705Z,3.90
2022-11-19T13:40:53.103Z,3.73
2022-11-19T13:43:40.562Z,2.43
2022-11-19T13:46:19.349Z,2.17
2022-11-19T13:48:52.170Z,3.63
2022-11-19T13:51:30.175Z,4.10
2022-11-19T13:54:02.971Z,2.23
2022-11-19T13:56:47.879Z,2.90
2022-11-19T13:59:36.642Z,3.30
2022-11-19T14:02:31.829Z,3.17
2022-11-19T14:05:31.316Z,3.30
2022-11-19T14:08:12.467Z,3.67
2022-11-19T14:10:46.541Z,2.77
2022-11-19T14:13:34.517Z,2.43
2022-11-19T14:16:33.927Z,2.63
2022-11-19T14:19:22.475Z,4.10
2022-11-19T14:22:16.032Z,3.50
2022-11-19T14:25:11.874Z,2.60
2022-11-19T14:27:40.736Z,4.03
2022-11-19T14:30:16.498Z,3.07
2022-11-19T14:32:48.223Z,3.27
2022-11-19T14:35:40.773Z,3.03
2022-11-19T14:38:47.990Z,2.30
2022-11-19T14:41:22.269Z,2.73
2022-11-19T14:44:10.472Z,3.83
2022-11-19T14:46:45.989Z,2.73
2022-11-19T14:49:40.869Z,3.50
2022-11-19T14:52:21.167Z,4.40
2022-11-19T14:54:56.336Z,4.37
2022-11-19T14:57:30.895Z,3.10
2022-11-19T15:00:02.418Z,3.63
2022-11-19T15:02:36.312Z,3.70
2022-11-19T15:05:17.928Z,2.97
2022-11-19T15:07:51.420Z,3.43
2022-11-19T15:10:48.768Z,3.23
2022-11-19T15:13:29.924Z,3.27
2022-11-19T15:16:03.984Z,4.23
2022-11-19T15:19:15.994Z,2.53
2022-11-19T15:22:08.295Z,3.40
2022-11-19T15:24:50.619Z,3.33
2022-11-19T15:27:27.203Z,3.30
2022-11-19T15:30:16.124Z,3.27
2022-11-19T15:33:03.653Z,2.53
2022-11-19T15:36:08.693Z,2.37
2022-11-19T15:38:41.082Z,3.37
2022-11-19T15:41:15.247Z,4.20
2022-11-19T15:43:49.323Z,3.50
2022-11-19T15:46:21.599Z,3.53
2022-11-19T15:48:58.704Z,3.50
2022-11-19T15:51:28.063Z,4.50
2022-11-19T15:54:00.349Z,5.03
2022-11-19T15:56:32.989Z,5.47
2022-11-19T15:59:02.472Z,5.10
2022-11-19T16:01:32.941Z,6.22
2022-11-19T16:04:05.404Z,6.40
2022-11-19T16:06:35.956Z,6.90
2022-11-19T16:09:05.873Z,8.37
2022-11-19T16:11:56.029Z,6.30
2022-11-19T16:14:43.441Z,8.23
2022-11-19T16:17:30.417Z,11.63
2022-11-19T16:20:21.261Z,10.47
2022-11-19T16:22:56.007Z,11.93
2022-11-19T16:25:32.113Z,14.07
2022-11-19T16:28:03.453Z,11.60
2022-11-19T16:30:38.635Z,12.17
2022-11-19T16:33:06.777Z,10.23
2022-11-19T16:35:34.761Z,11.43
2022-11-19T16:38:04.480Z,11.40
2022-11-19T16:40:53.167Z,11.83
2022-11-19T16:43:20.679Z,14.30
2022-11-19T16:45:49.856Z,15.57
2022-11-19T16:49:00.393Z,15.10
2022-11-19T16:51:40.766Z,14.00
2022-11-19T16:54:11.916Z,17.47
2022-11-19T16:56:45.502Z,15.50
2022-11-19T16:59:23.734Z,19.13
2022-11-19T17:01:59.537Z,14.67
2022-11-19T17:04:31.333Z,14.90
2022-11-19T17:07:00.427Z,15.60
2022-11-19T17:09:47.835Z,13.50
2022-11-19T17:12:27.479Z,14.07
2022-11-19T17:14:58.966Z,13.37
2022-11-19T17:17:40.802Z,15.27
2022-11-19T17:20:57.811Z,16.73
2022-11-19T17:23:27.913Z,13.27
2022-11-19T17:25:59.045Z,15.90
2022-11-19T17:28:35.047Z,20.27
2022-11-19T17:31:05.113Z,24.13
2022-11-19T17:33:36.556Z,21.50
2022-11-19T17:36:05.259Z,23.53
2022-11-19T17:38:34.169Z,23.57
2022-11-19T17:41:07.366Z,25.47
2022-11-19T17:43:54.671Z,23.03
2022-11-19T17:46:23.601Z,28.37
2022-11-19T17:48:52.715Z,31.60
2022-11-19T17:51:22.221Z,25.63
2022-11-19T17:53:51.802Z,32.20
2022-11-19T17:56:24.651Z,176.13
2022-11-19T17:58:52.777Z,100.43
2022-11-19T18:01:20.885Z,57.00
2022-11-19T18:03:49.147Z,46.63
2022-11-19T18:06:19.238Z,30.87
2022-11-19T18:08:47.477Z,21.13
2022-11-19T18:11:17.630Z,20.50
2022-11-19T18:13:48.221Z,18.60
2022-11-19T18:16:18.017Z,17.13
2022-11-19T18:18:46.143Z,12.67
2022-11-19T18:21:15.591Z,12.47
2022-11-19T18:23:44.883Z,13.87
2022-11-19T18:26:13.427Z,13.67
2022-11-19T18:28:43.765Z,11.20
2022-11-19T18:31:18.617Z,14.57
2022-11-19T18:33:47.935Z,12.60
2022-11-19T18:36:18.181Z,13.90
2022-11-19T18:38:46.462Z,14.53
2022-11-19T18:41:16.101Z,14.27
2022-11-19T18:44:01.749Z,14.93
2022-11-19T18:46:31.191Z,17.17
2022-11-19T18:48:59.770Z,16.23
2022-11-19T18:51:30.033Z,14.27
2022-11-19T18:53:58.212Z,15.67
2022-11-19T18:56:26.456Z,14.80
2022-11-19T18:58:56.426Z,13.00
2022-11-19T19:01:26.063Z,13.50
2022-11-19T19:03:55.541Z,14.33
2022-11-19T19:06:24.940Z,10.47
2022-11-19T19:08:53.473Z,12.13
2022-11-19T19:11:39.168Z,9.87
2022-11-19T19:14:07.188Z,9.77
2022-11-19T19:16:35.525Z,8.87
2022-11-19T19:19:05.018Z,10.43
2022-11-19T19:21:33.065Z,9.43
2022-11-19T19:24:01.172Z,9.07
2022-11-19T19:26:29.150Z,12.07
2022-11-19T19:28:57.154Z,81.80
2022-11-19T19:31:25.628Z,53.23
2022-11-19T19:33:54.018Z,31.13
2022-11-19T19:36:23.369Z,32.23
2022-11-19T19:38:51.688Z,24.47
2022-11-19T19:41:22.010Z,13.60
2022-11-19T19:43:50.429Z,15.73
2022-11-19T19:46:22.720Z,11.57
2022-11-19T19:48:52.645Z,11.50
2022-11-19T19:51:22.140Z,10.43
2022-11-19T19:53:51.746Z,13.70
2022-11-19T19:56:22.300Z,10.37
2022-11-19T19:58:51.603Z,10.83
2022-11-19T20:01:21.831Z,11.50
2022-11-19T20:03:54.219Z,9.70
2022-11-19T20:06:24.558Z,9.77
2022-11-19T20:08:54.183Z,11.33
2022-11-19T20:11:25.358Z,9.10
2022-11-19T20:13:55.010Z,8.20
2022-11-19T20:16:25.800Z,9.23
2022-11-19T20:18:57.340Z,7.47
2022-11-19T20:21:27.362Z,8.10
2022-11-19T20:23:57.144Z,9.13
2022-11-19T20:26:27.894Z,8.43
2022-11-19T20:28:57.452Z,7.17
2022-11-19T20:31:26.771Z,6.90
2022-11-19T20:33:57.316Z,7.30
2022-11-19T20:36:26.869Z,6.97
2022-11-19T20:38:57.449Z,7.87
2022-11-19T20:41:44.514Z,9.07
2022-11-19T20:44:23.333Z,8.37
2022-11-19T20:46:53.997Z,10.90
2022-11-19T20:49:24.237Z,9.00
2022-11-19T20:51:53.757Z,12.13
2022-11-19T20:54:23.541Z,16.80
2022-11-19T20:56:52.584Z,23.40
2022-11-19T20:59:21.238Z,18.47
2022-11-19T21:01:50.623Z,22.73
2022-11-19T21:04:19.200Z,19.80
2022-11-19T21:06:47.276Z,15.67
2022-11-19T21:09:15.989Z,14.27
2022-11-19T21:11:45.445Z,13.33
2022-11-19T21:14:13.853Z,12.00
2022-11-19T21:16:41.994Z,12.23
2022-11-19T21:19:10.564Z,11.13
2022-11-19T21:21:38.941Z,12.57
2022-11-19T21:24:08.021Z,10.63
2022-11-19T21:26:36.798Z,10.20
2022-11-19T21:29:06.209Z,11.10
2022-11-19T21:31:39.726Z,10.00
2022-11-19T21:34:08.961Z,12.20
2022-11-19T21:36:37.897Z,10.67
2022-11-19T21:39:08.772Z,10.30
2022-11-19T21:41:37.128Z,10.67
2022-11-19T21:44:07.561Z,6.83
2022-11-19T21:46:36.378Z,8.97
2022-11-19T21:49:05.014Z,7.73
2022-11-19T21:51:33.012Z,10.17
2022-11-19T21:54:01.288Z,10.47
2022-11-19T21:56:33.793Z,9.57
2022-11-19T21:59:06.677Z,8.53
2022-11-19T22:01:34.681Z,9.37
2022-11-19T22:04:02.797Z,11.80
2022-11-19T22:06:31.957Z,10.23
2022-11-19T22:09:02.537Z,9.10
2022-11-19T22:11:31.012Z,9.90
2022-11-19T22:14:01.249Z,9.23
2022-11-19T22:16:31.798Z,9.07
2022-11-19T22:18:59.948Z,8.87
2022-11-19T22:21:29.030Z,10.87
2022-11-19T22:23:57.417Z,8.87
2022-11-19T22:26:25.550Z,9.17
2022-11-19T22:28:53.549Z,10.10
2022-11-19T22:31:21.662Z,8.00
2022-11-19T22:33:52.018Z,9.10
2022-11-19T22:36:21.940Z,10.33
2022-11-19T22:38:49.982Z,7.97
2022-11-19T22:41:19.861Z,7.83
2022-11-19T22:43:48.021Z,8.60
2022-11-19T22:46:16.512Z,6.27
2022-11-19T22:48:44.811Z,6.13
2022-11-19T22:51:15.830Z,6.07
2022-11-19T22:53:44.041Z,5.60
2022-11-19T22:56:13.276Z,5.97
2022-11-19T22:58:43.016Z,6.50
2022-11-19T23:01:19.024Z,8.20
2022-11-19T23:03:48.890Z,7.47
2022-11-19T23:06:18.736Z,7.60
2022-11-19T23:08:47.301Z,6.47
2022-11-19T23:11:16.707Z,7.43
2022-11-19T23:13:44.647Z,6.87
2022-11-19T23:16:14.856Z,6.17
2022-11-19T23:18:46.577Z,6.23
2022-11-19T23:21:16.193Z,6.43
2022-11-19T23:23:45.632Z,6.93
2022-11-19T23:26:16.821Z,6.33
2022-11-19T23:28:45.788Z,10.37
2022-11-19T23:31:16.569Z,11.67
2022-11-19T23:33:45.264Z,8.37
2022-11-19T23:36:15.309Z,7.23
2022-11-19T23:38:45.247Z,7.57
2022-11-19T23:41:14.965Z,8.13
2022-11-19T23:43:43.261Z,6.03
2022-11-19T23:46:14.198Z,6.40
2022-11-19T23:48:43.762Z,11.90
2022-11-19T23:51:14.241Z,32.30
2022-11-19T23:53:43.386Z,39.53
2022-11-19T23:56:16.099Z,21.40
2022-11-19T23:58:44.961Z,15.47
